sensor_id;sensor_type;location;lat;lon;timestamp;pressure;altitude;pressure_sealevel;temperature;humidity
7335;BME280;3708;42.632;23.378;2023-09-30T00:00:48;94772.06;;;21.54;41.26
7335;BME280;3708;42.632;23.378;2023-09-30T00:03:15;94764.41;;;21.49;41.58
7335;BME280;3708;42.632;23.378;2023-09-30T00:05:41;94757.94;;;21.50;41.61
7335;BME280;3708;42.632;23.378;2023-09-30T00:08:08;94765.16;;;21.43;42.48
7335;BME280;3708;42.632;23.378;2023-09-30T00:10:36;94762.44;;;21.36;42.43
7335;BME280;3708;42.632;23.378;2023-09-30T00:13:03;94764.22;;;21.14;42.72
7335;BME280;3708;42.632;23.378;2023-09-30T00:15:32;94768.78;;;21.10;42.89
7335;BME280;3708;42.632;23.378;2023-09-30T00:18:00;94761.94;;;21.16;43.03
7335;BME280;3708;42.632;23.378;2023-09-30T00:20:28;94763.91;;;21.22;42.72
7335;BME280;3708;42.632;23.378;2023-09-30T00:22:54;94762.72;;;21.20;42.22
7335;BME280;3708;42.632;23.378;2023-09-30T00:25:21;94764.28;;;21.17;41.07
7335;BME280;3708;42.632;23.378;2023-09-30T00:27:48;94763.47;;;21.13;41.12
7335;BME280;3708;42.632;23.378;2023-09-30T00:30:15;94756.13;;;21.00;42.79
7335;BME280;3708;42.632;23.378;2023-09-30T00:32:42;94751.66;;;21.11;42.88
7335;BME280;3708;42.632;23.378;2023-09-30T00:35:10;94757.00;;;21.18;42.82
7335;BME280;3708;42.632;23.378;2023-09-30T00:37:37;94760.13;;;21.27;43.02
7335;BME280;3708;42.632;23.378;2023-09-30T00:40:05;94757.47;;;21.31;43.05
7335;BME280;3708;42.632;23.378;2023-09-30T00:42:33;94746.00;;;21.23;42.85
7335;BME280;3708;42.632;23.378;2023-09-30T00:45:00;94750.97;;;21.21;42.09
7335;BME280;3708;42.632;23.378;2023-09-30T00:47:30;94746.34;;;21.11;41.89
7335;BME280;3708;42.632;23.378;2023-09-30T00:49:59;94751.22;;;21.02;42.03
7335;BME280;3708;42.632;23.378;2023-09-30T00:52:27;94751.28;;;21.09;41.94
7335;BME280;3708;42.632;23.378;2023-09-30T00:54:54;94741.75;;;21.11;42.20
7335;BME280;3708;42.632;23.378;2023-09-30T00:57:21;94752.66;;;20.89;41.84
7335;BME280;3708;42.632;23.378;2023-09-30T00:59:50;94749.25;;;20.95;41.80
7335;BME280;3708;42.632;23.378;2023-09-30T01:02:17;94748.88;;;20.97;41.82
7335;BME280;3708;42.632;23.378;2023-09-30T01:04:44;94748.91;;;21.00;41.93
7335;BME280;3708;42.632;23.378;2023-09-30T01:07:11;94743.88;;;20.88;41.94
7335;BME280;3708;42.632;23.378;2023-09-30T01:09:40;94744.13;;;20.69;42.09
7335;BME280;3708;42.632;23.378;2023-09-30T01:12:07;94746.09;;;20.79;42.40
7335;BME280;3708;42.632;23.378;2023-09-30T01:14:34;94736.25;;;20.83;42.40
7335;BME280;3708;42.632;23.378;2023-09-30T01:17:03;94742.00;;;20.89;42.27
7335;BME280;3708;42.632;23.378;2023-09-30T01:19:34;94743.16;;;20.91;42.39
7335;BME280;3708;42.632;23.378;2023-09-30T01:22:02;94746.59;;;20.99;42.23
7335;BME280;3708;42.632;23.378;2023-09-30T01:24:38;94735.22;;;21.02;42.34
7335;BME280;3708;42.632;23.378;2023-09-30T01:27:06;94745.56;;;21.10;42.28
7335;BME280;3708;42.632;23.378;2023-09-30T01:29:33;94748.66;;;21.19;41.99
7335;BME280;3708;42.632;23.378;2023-09-30T01:32:00;94744.88;;;21.24;42.07
7335;BME280;3708;42.632;23.378;2023-09-30T01:34:27;94740.72;;;21.30;42.01
7335;BME280;3708;42.632;23.378;2023-09-30T01:36:54;94743.41;;;21.34;41.42
7335;BME280;3708;42.632;23.378;2023-09-30T01:39:22;94738.44;;;21.32;41.47
7335;BME280;3708;42.632;23.378;2023-09-30T01:41:49;94745.25;;;21.22;41.26
7335;BME280;3708;42.632;23.378;2023-09-30T01:44:16;94738.41;;;21.25;41.66
7335;BME280;3708;42.632;23.378;2023-09-30T01:46:43;94744.50;;;21.29;41.80
7335;BME280;3708;42.632;23.378;2023-09-30T01:49:10;94738.06;;;21.30;41.63
7335;BME280;3708;42.632;23.378;2023-09-30T01:51:36;94738.06;;;21.30;41.34
7335;BME280;3708;42.632;23.378;2023-09-30T01:54:04;94733.69;;;20.97;41.25
7335;BME280;3708;42.632;23.378;2023-09-30T01:56:32;94735.06;;;20.74;41.86
7335;BME280;3708;42.632;23.378;2023-09-30T01:58:59;94737.28;;;20.68;41.79
7335;BME280;3708;42.632;23.378;2023-09-30T02:01:26;94742.66;;;20.75;41.79
7335;BME280;3708;42.632;23.378;2023-09-30T02:03:53;94733.94;;;20.78;42.01
7335;BME280;3708;42.632;23.378;2023-09-30T02:06:20;94732.34;;;20.67;42.09
7335;BME280;3708;42.632;23.378;2023-09-30T02:08:47;94726.63;;;20.65;41.95
7335;BME280;3708;42.632;23.378;2023-09-30T02:11:14;94728.47;;;20.57;42.33
7335;BME280;3708;42.632;23.378;2023-09-30T02:13:43;94728.50;;;20.61;42.26
7335;BME280;3708;42.632;23.378;2023-09-30T02:16:13;94720.91;;;20.63;42.25
7335;BME280;3708;42.632;23.378;2023-09-30T02:18:43;94730.44;;;20.67;42.11
7335;BME280;3708;42.632;23.378;2023-09-30T02:21:11;94728.63;;;20.82;42.06
7335;BME280;3708;42.632;23.378;2023-09-30T02:23:38;94725.63;;;20.90;42.12
7335;BME280;3708;42.632;23.378;2023-09-30T02:26:05;94724.91;;;20.93;41.93
7335;BME280;3708;42.632;23.378;2023-09-30T02:28:32;94724.16;;;20.96;41.92
7335;BME280;3708;42.632;23.378;2023-09-30T02:31:01;94729.50;;;21.00;41.97
7335;BME280;3708;42.632;23.378;2023-09-30T02:33:28;94728.34;;;20.97;42.02
7335;BME280;3708;42.632;23.378;2023-09-30T02:35:55;94730.25;;;20.97;41.88
7335;BME280;3708;42.632;23.378;2023-09-30T02:38:22;94724.19;;;21.00;42.18
7335;BME280;3708;42.632;23.378;2023-09-30T02:40:50;94727.19;;;20.95;41.73
7335;BME280;3708;42.632;23.378;2023-09-30T02:43:17;94739.66;;;20.84;41.88
7335;BME280;3708;42.632;23.378;2023-09-30T02:45:45;94737.75;;;20.81;42.15
7335;BME280;3708;42.632;23.378;2023-09-30T02:48:13;94732.84;;;20.83;42.26
7335;BME280;3708;42.632;23.378;2023-09-30T02:50:42;94727.78;;;20.71;42.14
7335;BME280;3708;42.632;23.378;2023-09-30T02:53:11;94729.59;;;20.56;42.34
7335;BME280;3708;42.632;23.378;2023-09-30T02:55:38;94731.88;;;20.58;42.47
7335;BME280;3708;42.632;23.378;2023-09-30T02:58:05;94733.72;;;20.46;42.63
7335;BME280;3708;42.632;23.378;2023-09-30T03:00:33;94724.84;;;20.32;42.72
7335;BME280;3708;42.632;23.378;2023-09-30T03:03:00;94724.16;;;19.98;43.71
7335;BME280;3708;42.632;23.378;2023-09-30T03:05:29;94730.03;;;20.18;43.63
7335;BME280;3708;42.632;23.378;2023-09-30T03:07:58;94729.81;;;20.33;43.58
7335;BME280;3708;42.632;23.378;2023-09-30T03:10:26;94728.56;;;20.20;43.59
7335;BME280;3708;42.632;23.378;2023-09-30T03:12:53;94726.09;;;20.01;44.48
7335;BME280;3708;42.632;23.378;2023-09-30T03:15:20;94730.03;;;20.18;44.38
7335;BME280;3708;42.632;23.378;2023-09-30T03:17:47;94725.22;;;20.30;44.33
7335;BME280;3708;42.632;23.378;2023-09-30T03:20:14;94727.19;;;20.37;44.17
7335;BME280;3708;42.632;23.378;2023-09-30T03:22:46;94729.50;;;20.42;43.92
7335;BME280;3708;42.632;23.378;2023-09-30T03:25:14;94732.16;;;20.42;44.21
7335;BME280;3708;42.632;23.378;2023-09-30T03:27:43;94734.50;;;20.50;44.09
7335;BME280;3708;42.632;23.378;2023-09-30T03:30:12;94726.91;;;20.52;43.85
7335;BME280;3708;42.632;23.378;2023-09-30T03:32:40;94724.19;;;20.45;43.63
7335;BME280;3708;42.632;23.378;2023-09-30T03:35:09;94727.28;;;20.51;44.01
7335;BME280;3708;42.632;23.378;2023-09-30T03:37:40;94724.66;;;20.55;44.07
7335;BME280;3708;42.632;23.378;2023-09-30T03:40:09;94723.09;;;20.46;43.91
7335;BME280;3708;42.632;23.378;2023-09-30T03:42:40;94722.22;;;20.35;43.98
7335;BME280;3708;42.632;23.378;2023-09-30T03:45:08;94728.34;;;20.39;44.31
7335;BME280;3708;42.632;23.378;2023-09-30T03:47:36;94731.47;;;20.48;44.31
7335;BME280;3708;42.632;23.378;2023-09-30T03:50:07;94730.75;;;20.55;43.98
7335;BME280;3708;42.632;23.378;2023-09-30T03:52:40;94727.66;;;20.49;44.37
7335;BME280;3708;42.632;23.378;2023-09-30T03:55:10;94723.09;;;20.50;44.22
7335;BME280;3708;42.632;23.378;2023-09-30T03:57:38;94723.75;;;20.36;44.41
7335;BME280;3708;42.632;23.378;2023-09-30T04:00:06;94726.00;;;20.34;44.27
7335;BME280;3708;42.632;23.378;2023-09-30T04:02:36;94725.81;;;20.13;45.03
7335;BME280;3708;42.632;23.378;2023-09-30T04:05:04;94723.13;;;20.10;45.30
7335;BME280;3708;42.632;23.378;2023-09-30T04:07:32;94725.09;;;20.16;45.45
7335;BME280;3708;42.632;23.378;2023-09-30T04:10:02;94731.25;;;20.27;45.37
7335;BME280;3708;42.632;23.378;2023-09-30T04:12:31;94726.75;;;20.31;45.45
7335;BME280;3708;42.632;23.378;2023-09-30T04:14:59;94732.09;;;20.35;45.33
7335;BME280;3708;42.632;23.378;2023-09-30T04:17:26;94732.75;;;20.21;45.40
7335;BME280;3708;42.632;23.378;2023-09-30T04:19:53;94737.56;;;20.12;45.67
7335;BME280;3708;42.632;23.378;2023-09-30T04:22:20;94733.34;;;20.08;45.45
7335;BME280;3708;42.632;23.378;2023-09-30T04:24:49;94733.38;;;20.11;45.56
7335;BME280;3708;42.632;23.378;2023-09-30T04:27:17;94737.06;;;20.00;45.33
7335;BME280;3708;42.632;23.378;2023-09-30T04:29:45;94738.91;;;19.92;45.42
7335;BME280;3708;42.632;23.378;2023-09-30T04:32:12;94743.34;;;19.81;45.72
7335;BME280;3708;42.632;23.378;2023-09-30T04:34:39;94749.34;;;19.71;46.04
7335;BME280;3708;42.632;23.378;2023-09-30T04:37:06;94741.34;;;19.71;46.17
7335;BME280;3708;42.632;23.378;2023-09-30T04:39:45;94746.19;;;19.62;46.16
7335;BME280;3708;42.632;23.378;2023-09-30T04:42:11;94746.13;;;19.58;46.42
7335;BME280;3708;42.632;23.378;2023-09-30T04:44:38;94749.06;;;19.50;46.77
7335;BME280;3708;42.632;23.378;2023-09-30T04:47:08;94753.91;;;19.41;46.77
7335;BME280;3708;42.632;23.378;2023-09-30T04:49:35;94758.25;;;19.26;47.31
7335;BME280;3708;42.632;23.378;2023-09-30T04:52:03;94765.78;;;19.21;47.18
7335;BME280;3708;42.632;23.378;2023-09-30T04:54:32;94758.91;;;19.20;47.37
7335;BME280;3708;42.632;23.378;2023-09-30T04:57:00;94758.44;;;19.11;47.24
7335;BME280;3708;42.632;23.378;2023-09-30T04:59:27;94759.41;;;18.99;47.62
7335;BME280;3708;42.632;23.378;2023-09-30T05:01:55;94762.03;;;18.69;48.35
7335;BME280;3708;42.632;23.378;2023-09-30T05:04:23;94762.75;;;18.70;48.32
7335;BME280;3708;42.632;23.378;2023-09-30T05:06:51;94765.91;;;18.75;48.39
7335;BME280;3708;42.632;23.378;2023-09-30T05:09:18;94758.13;;;18.89;48.38
7335;BME280;3708;42.632;23.378;2023-09-30T05:11:46;94763.28;;;19.05;48.19
7335;BME280;3708;42.632;23.378;2023-09-30T05:14:13;94769.50;;;18.90;48.15
7335;BME280;3708;42.632;23.378;2023-09-30T05:16:39;94766.34;;;19.07;47.96
7335;BME280;3708;42.632;23.378;2023-09-30T05:19:08;94763.31;;;19.09;47.85
7335;BME280;3708;42.632;23.378;2023-09-30T05:21:37;94768.00;;;18.89;48.47
7335;BME280;3708;42.632;23.378;2023-09-30T05:24:04;94766.84;;;19.16;48.29
7335;BME280;3708;42.632;23.378;2023-09-30T05:26:32;94766.59;;;19.28;48.02
7335;BME280;3708;42.632;23.378;2023-09-30T05:28:59;94762.34;;;19.50;47.55
7335;BME280;3708;42.632;23.378;2023-09-30T05:31:26;94764.03;;;19.65;47.33
7335;BME280;3708;42.632;23.378;2023-09-30T05:33:52;94767.50;;;19.69;46.98
7335;BME280;3708;42.632;23.378;2023-09-30T05:36:20;94768.84;;;19.86;46.77
7335;BME280;3708;42.632;23.378;2023-09-30T05:38:49;94771.69;;;20.03;46.54
7335;BME280;3708;42.632;23.378;2023-09-30T05:41:15;94774.56;;;20.24;46.30
7335;BME280;3708;42.632;23.378;2023-09-30T05:43:43;94778.44;;;20.30;46.02
7335;BME280;3708;42.632;23.378;2023-09-30T05:46:11;94777.72;;;20.37;45.77
7335;BME280;3708;42.632;23.378;2023-09-30T05:48:38;94778.22;;;20.49;45.78
7335;BME280;3708;42.632;23.378;2023-09-30T05:51:05;94777.88;;;20.55;45.58
7335;BME280;3708;42.632;23.378;2023-09-30T05:53:32;94784.44;;;20.68;45.35
7335;BME280;3708;42.632;23.378;2023-09-30T05:56:01;94776.53;;;20.78;44.88
7335;BME280;3708;42.632;23.378;2023-09-30T05:58:29;94781.03;;;20.71;45.14
7335;BME280;3708;42.632;23.378;2023-09-30T06:00:57;94788.91;;;19.80;47.11
7335;BME280;3708;42.632;23.378;2023-09-30T06:03:25;94794.09;;;20.06;46.45
7335;BME280;3708;42.632;23.378;2023-09-30T06:06:13;94789.53;;;19.69;47.49
7335;BME280;3708;42.632;23.378;2023-09-30T06:08:41;94792.81;;;19.89;47.20
7335;BME280;3708;42.632;23.378;2023-09-30T06:11:21;94792.97;;;19.70;47.76
7335;BME280;3708;42.632;23.378;2023-09-30T06:13:50;94789.50;;;19.66;47.79
7335;BME280;3708;42.632;23.378;2023-09-30T06:16:18;94789.44;;;19.92;47.17
7335;BME280;3708;42.632;23.378;2023-09-30T06:18:46;94799.69;;;19.60;47.91
7335;BME280;3708;42.632;23.378;2023-09-30T06:21:13;94808.81;;;19.33;47.54
7335;BME280;3708;42.632;23.378;2023-09-30T06:23:43;94799.13;;;19.77;46.76
7335;BME280;3708;42.632;23.378;2023-09-30T06:26:10;94803.22;;;20.05;45.46
7335;BME280;3708;42.632;23.378;2023-09-30T06:28:38;94800.56;;;20.41;44.80
7335;BME280;3708;42.632;23.378;2023-09-30T06:31:06;94806.59;;;19.98;45.55
7335;BME280;3708;42.632;23.378;2023-09-30T06:33:34;94813.81;;;20.34;43.96
7335;BME280;3708;42.632;23.378;2023-09-30T06:36:02;94806.31;;;20.10;44.73
7335;BME280;3708;42.632;23.378;2023-09-30T06:38:29;94812.25;;;20.74;43.38
7335;BME280;3708;42.632;23.378;2023-09-30T06:40:57;94805.44;;;20.76;42.99
7335;BME280;3708;42.632;23.378;2023-09-30T06:43:25;94806.34;;;20.98;41.81
7335;BME280;3708;42.632;23.378;2023-09-30T06:45:54;94810.84;;;20.87;42.35
7335;BME280;3708;42.632;23.378;2023-09-30T06:48:21;94811.00;;;21.08;42.09
7335;BME280;3708;42.632;23.378;2023-09-30T06:50:49;94812.03;;;21.58;41.35
7335;BME280;3708;42.632;23.378;2023-09-30T06:53:18;94806.63;;;21.40;41.08
7335;BME280;3708;42.632;23.378;2023-09-30T06:55:47;94816.09;;;20.80;41.56
7335;BME280;3708;42.632;23.378;2023-09-30T06:58:17;94816.44;;;20.75;42.12
7335;BME280;3708;42.632;23.378;2023-09-30T07:00:47;94819.28;;;20.99;42.14
7335;BME280;3708;42.632;23.378;2023-09-30T07:03:17;94821.34;;;21.20;41.78
7335;BME280;3708;42.632;23.378;2023-09-30T07:05:45;94824.09;;;21.34;41.42
7335;BME280;3708;42.632;23.378;2023-09-30T07:08:15;94823.75;;;20.85;42.85
7335;BME280;3708;42.632;23.378;2023-09-30T07:10:42;94834.19;;;21.04;42.37
7335;BME280;3708;42.632;23.378;2023-09-30T07:13:11;94829.09;;;20.92;42.12
7335;BME280;3708;42.632;23.378;2023-09-30T07:15:38;94832.16;;;21.48;41.29
7335;BME280;3708;42.632;23.378;2023-09-30T07:18:05;94835.31;;;21.64;40.60
7335;BME280;3708;42.632;23.378;2023-09-30T07:20:33;94833.16;;;21.87;40.04
7335;BME280;3708;42.632;23.378;2023-09-30T07:23:01;94831.09;;;21.60;39.88
7335;BME280;3708;42.632;23.378;2023-09-30T07:25:28;94829.09;;;21.39;40.21
7335;BME280;3708;42.632;23.378;2023-09-30T07:27:57;94830.56;;;22.12;38.80
7335;BME280;3708;42.632;23.378;2023-09-30T07:30:26;94835.47;;;21.96;38.45
7335;BME280;3708;42.632;23.378;2023-09-30T07:32:53;94827.94;;;22.23;38.46
7335;BME280;3708;42.632;23.378;2023-09-30T07:35:20;94829.13;;;22.53;37.69
7335;BME280;3708;42.632;23.378;2023-09-30T07:37:48;94828.41;;;22.60;37.78
7335;BME280;3708;42.632;23.378;2023-09-30T07:40:18;94827.94;;;22.23;38.02
7335;BME280;3708;42.632;23.378;2023-09-30T07:42:46;94833.38;;;22.72;37.06
7335;BME280;3708;42.632;23.378;2023-09-30T07:45:13;94831.81;;;23.20;36.67
7335;BME280;3708;42.632;23.378;2023-09-30T07:47:43;94836.72;;;23.68;35.93
7335;BME280;3708;42.632;23.378;2023-09-30T07:50:12;94830.56;;;23.74;35.85
7335;BME280;3708;42.632;23.378;2023-09-30T07:52:39;94832.84;;;23.83;35.52
7335;BME280;3708;42.632;23.378;2023-09-30T07:55:09;94830.31;;;24.34;34.92
7335;BME280;3708;42.632;23.378;2023-09-30T07:57:36;94827.94;;;24.47;34.01
7335;BME280;3708;42.632;23.378;2023-09-30T08:00:04;94830.84;;;24.73;32.79
7335;BME280;3708;42.632;23.378;2023-09-30T08:02:34;94830.75;;;24.87;32.47
7335;BME280;3708;42.632;23.378;2023-09-30T08:05:02;94832.66;;;24.87;32.16
7335;BME280;3708;42.632;23.378;2023-09-30T08:07:29;94832.88;;;25.07;32.16
7335;BME280;3708;42.632;23.378;2023-09-30T08:09:56;94831.56;;;25.25;31.23
7335;BME280;3708;42.632;23.378;2023-09-30T08:12:25;94832.50;;;25.05;30.86
7335;BME280;3708;42.632;23.378;2023-09-30T08:14:52;94838.09;;;24.80;31.74
7335;BME280;3708;42.632;23.378;2023-09-30T08:17:19;94837.56;;;25.36;30.79
7335;BME280;3708;42.632;23.378;2023-09-30T08:19:46;94842.44;;;25.52;30.59
7335;BME280;3708;42.632;23.378;2023-09-30T08:22:14;94837.00;;;25.59;30.33
7335;BME280;3708;42.632;23.378;2023-09-30T08:24:41;94840.16;;;25.84;30.04
7335;BME280;3708;42.632;23.378;2023-09-30T08:27:08;94829.50;;;25.43;30.74
7335;BME280;3708;42.632;23.378;2023-09-30T08:29:37;94833.25;;;25.09;30.68
7335;BME280;3708;42.632;23.378;2023-09-30T08:32:04;94834.88;;;24.95;30.55
7335;BME280;3708;42.632;23.378;2023-09-30T08:34:32;94831.22;;;25.20;30.25
7335;BME280;3708;42.632;23.378;2023-09-30T08:36:59;94835.09;;;25.56;30.24
7335;BME280;3708;42.632;23.378;2023-09-30T08:39:27;94833.44;;;25.69;29.45
7335;BME280;3708;42.632;23.378;2023-09-30T08:41:55;94834.13;;;26.10;28.82
7335;BME280;3708;42.632;23.378;2023-09-30T08:44:23;94833.13;;;26.27;28.58
7335;BME280;3708;42.632;23.378;2023-09-30T08:46:53;94830.94;;;26.72;27.97
7335;BME280;3708;42.632;23.378;2023-09-30T08:49:22;94829.03;;;26.99;27.85
7335;BME280;3708;42.632;23.378;2023-09-30T08:51:49;94816.97;;;27.31;26.82
7335;BME280;3708;42.632;23.378;2023-09-30T08:54:17;94827.34;;;27.32;26.54
7335;BME280;3708;42.632;23.378;2023-09-30T08:56:44;94825.59;;;27.45;26.52
7335;BME280;3708;42.632;23.378;2023-09-30T08:59:14;94822.19;;;27.18;26.93
7335;BME280;3708;42.632;23.378;2023-09-30T09:01:41;94826.13;;;27.56;26.61
7335;BME280;3708;42.632;23.378;2023-09-30T09:04:10;94821.59;;;27.73;26.05
7335;BME280;3708;42.632;23.378;2023-09-30T09:06:37;94821.22;;;27.28;26.64
7335;BME280;3708;42.632;23.378;2023-09-30T09:09:14;94814.69;;;27.52;26.42
7335;BME280;3708;42.632;23.378;2023-09-30T09:11:42;94811.53;;;27.77;26.55
7335;BME280;3708;42.632;23.378;2023-09-30T09:14:09;94810.16;;;27.69;26.07
7335;BME280;3708;42.632;23.378;2023-09-30T09:16:36;94813.06;;;27.98;25.06
7335;BME280;3708;42.632;23.378;2023-09-30T09:19:19;94815.47;;;28.12;24.78
7335;BME280;3708;42.632;23.378;2023-09-30T09:21:54;94811.91;;;27.99;24.80
7335;BME280;3708;42.632;23.378;2023-09-30T09:24:29;94801.53;;;27.77;24.71
7335;BME280;3708;42.632;23.378;2023-09-30T09:27:07;94812.00;;;27.52;25.16
7335;BME280;3708;42.632;23.378;2023-09-30T09:29:35;94803.88;;;27.75;24.81
7335;BME280;3708;42.632;23.378;2023-09-30T09:32:10;94801.88;;;27.99;25.10
7335;BME280;3708;42.632;23.378;2023-09-30T09:35:48;94807.94;;;27.21;25.23
7335;BME280;3708;42.632;23.378;2023-09-30T09:37:56;94805.50;;;27.50;25.21
7335;BME280;3708;42.632;23.378;2023-09-30T09:40:23;94798.97;;;27.70;24.84
7335;BME280;3708;42.632;23.378;2023-09-30T09:42:51;94804.88;;;27.19;25.44
7335;BME280;3708;42.632;23.378;2023-09-30T09:45:22;94799.22;;;26.90;25.40
7335;BME280;3708;42.632;23.378;2023-09-30T09:47:49;94800.88;;;26.31;26.17
7335;BME280;3708;42.632;23.378;2023-09-30T09:50:19;94801.91;;;26.64;26.34
7335;BME280;3708;42.632;23.378;2023-09-30T09:52:48;94795.66;;;26.74;25.61
7335;BME280;3708;42.632;23.378;2023-09-30T09:55:16;94802.19;;;26.73;25.98
7335;BME280;3708;42.632;23.378;2023-09-30T09:57:44;94790.50;;;27.06;25.60
7335;BME280;3708;42.632;23.378;2023-09-30T10:00:13;94794.19;;;27.15;26.23
7335;BME280;3708;42.632;23.378;2023-09-30T10:02:40;94783.69;;;27.01;26.11
7335;BME280;3708;42.632;23.378;2023-09-30T10:05:08;94791.22;;;26.87;26.03
7335;BME280;3708;42.632;23.378;2023-09-30T10:07:43;94776.31;;;27.48;25.52
7335;BME280;3708;42.632;23.378;2023-09-30T10:10:15;94772.59;;;28.01;25.36
7335;BME280;3708;42.632;23.378;2023-09-30T10:12:42;94773.06;;;27.76;24.47
7335;BME280;3708;42.632;23.378;2023-09-30T10:15:38;94779.22;;;27.14;24.96
7335;BME280;3708;42.632;23.378;2023-09-30T10:18:08;94772.66;;;27.58;24.86
7335;BME280;3708;42.632;23.378;2023-09-30T10:20:37;94772.03;;;27.90;24.34
7335;BME280;3708;42.632;23.378;2023-09-30T10:23:24;94767.91;;;28.21;24.69
7335;BME280;3708;42.632;23.378;2023-09-30T10:25:53;94758.19;;;28.43;24.18
7335;BME280;3708;42.632;23.378;2023-09-30T10:28:37;94754.25;;;28.96;23.59
7335;BME280;3708;42.632;23.378;2023-09-30T10:31:09;94754.00;;;29.35;22.59
7335;BME280;3708;42.632;23.378;2023-09-30T10:34:18;94750.47;;;29.67;22.87
7335;BME280;3708;42.632;23.378;2023-09-30T10:36:46;94742.56;;;30.01;22.70
7335;BME280;3708;42.632;23.378;2023-09-30T10:39:55;94743.47;;;30.36;21.67
7335;BME280;3708;42.632;23.378;2023-09-30T10:42:46;94739.66;;;30.59;21.89
7335;BME280;3708;42.632;23.378;2023-09-30T10:45:43;94739.16;;;30.98;21.13
7335;BME280;3708;42.632;23.378;2023-09-30T10:48:35;94729.63;;;31.28;21.42
7335;BME280;3708;42.632;23.378;2023-09-30T10:51:18;94723.59;;;31.24;20.89
7335;BME280;3708;42.632;23.378;2023-09-30T10:53:48;94727.31;;;30.70;20.09
7335;BME280;3708;42.632;23.378;2023-09-30T10:56:17;94734.56;;;30.61;21.05
7335;BME280;3708;42.632;23.378;2023-09-30T10:58:45;94732.72;;;30.70;20.17
7335;BME280;3708;42.632;23.378;2023-09-30T11:01:13;94737.25;;;30.61;20.08
7335;BME280;3708;42.632;23.378;2023-09-30T11:03:41;94734.00;;;30.15;20.71
7335;BME280;3708;42.632;23.378;2023-09-30T11:06:11;94737.41;;;30.32;20.12
7335;BME280;3708;42.632;23.378;2023-09-30T11:08:49;94730.66;;;30.24;20.65
7335;BME280;3708;42.632;23.378;2023-09-30T11:11:17;94730.75;;;29.83;20.60
7335;BME280;3708;42.632;23.378;2023-09-30T11:13:44;94729.13;;;29.98;20.72
7335;BME280;3708;42.632;23.378;2023-09-30T11:16:11;94729.03;;;30.01;20.54
7335;BME280;3708;42.632;23.378;2023-09-30T11:18:38;94721.59;;;30.43;20.39
7335;BME280;3708;42.632;23.378;2023-09-30T11:21:06;94724.88;;;30.38;19.82
7335;BME280;3708;42.632;23.378;2023-09-30T11:23:35;94719.97;;;30.08;19.68
7335;BME280;3708;42.632;23.378;2023-09-30T11:26:03;94713.81;;;29.95;20.21
7335;BME280;3708;42.632;23.378;2023-09-30T11:28:38;94724.47;;;29.45;20.89
7335;BME280;3708;42.632;23.378;2023-09-30T11:31:08;94715.53;;;29.89;20.42
7335;BME280;3708;42.632;23.378;2023-09-30T11:33:50;94718.31;;;29.85;20.59
7335;BME280;3708;42.632;23.378;2023-09-30T11:36:19;94719.38;;;29.34;20.85
7335;BME280;3708;42.632;23.378;2023-09-30T11:38:47;94711.56;;;29.65;21.02
7335;BME280;3708;42.632;23.378;2023-09-30T11:41:17;94703.66;;;29.16;21.50
7335;BME280;3708;42.632;23.378;2023-09-30T11:44:06;94721.44;;;29.42;21.80
7335;BME280;3708;42.632;23.378;2023-09-30T11:46:49;94714.22;;;29.81;21.14
7335;BME280;3708;42.632;23.378;2023-09-30T11:49:28;94710.78;;;29.93;20.88
7335;BME280;3708;42.632;23.378;2023-09-30T11:51:56;94698.25;;;30.24;20.17
7335;BME280;3708;42.632;23.378;2023-09-30T11:54:29;94701.16;;;29.92;20.86
7335;BME280;3708;42.632;23.378;2023-09-30T11:56:57;94693.72;;;30.21;21.29
7335;BME280;3708;42.632;23.378;2023-09-30T11:59:24;94697.38;;;30.27;20.63
7335;BME280;3708;42.632;23.378;2023-09-30T12:01:51;94693.50;;;30.53;20.57
7335;BME280;3708;42.632;23.378;2023-09-30T12:04:18;94689.03;;;31.28;20.38
7335;BME280;3708;42.632;23.378;2023-09-30T12:06:46;94684.78;;;31.61;19.55
7335;BME280;3708;42.632;23.378;2023-09-30T12:09:13;94691.56;;;31.87;19.20
7335;BME280;3708;42.632;23.378;2023-09-30T12:11:41;94690.88;;;32.05;19.59
7335;BME280;3708;42.632;23.378;2023-09-30T12:14:11;94671.22;;;32.62;19.54
7335;BME280;3708;42.632;23.378;2023-09-30T12:16:39;94665.69;;;33.02;19.15
7335;BME280;3708;42.632;23.378;2023-09-30T12:19:07;94679.88;;;33.51;18.54
7335;BME280;3708;42.632;23.378;2023-09-30T12:21:34;94678.66;;;33.25;18.06
7335;BME280;3708;42.632;23.378;2023-09-30T12:24:02;94671.59;;;32.43;18.59
7335;BME280;3708;42.632;23.378;2023-09-30T12:26:30;94672.06;;;32.41;18.75
7335;BME280;3708;42.632;23.378;2023-09-30T12:28:57;94671.66;;;32.61;18.58
7335;BME280;3708;42.632;23.378;2023-09-30T12:31:25;94667.78;;;32.31;19.41
7335;BME280;3708;42.632;23.378;2023-09-30T12:33:52;94674.28;;;31.94;19.64
7335;BME280;3708;42.632;23.378;2023-09-30T12:36:19;94660.88;;;32.30;19.42
7335;BME280;3708;42.632;23.378;2023-09-30T12:38:47;94656.50;;;32.42;19.20
7335;BME280;3708;42.632;23.378;2023-09-30T12:41:14;94665.38;;;33.09;18.52
7335;BME280;3708;42.632;23.378;2023-09-30T12:43:41;94664.91;;;33.38;18.29
7335;BME280;3708;42.632;23.378;2023-09-30T12:46:08;94657.66;;;33.35;17.96
7335;BME280;3708;42.632;23.378;2023-09-30T12:48:36;94659.00;;;33.48;17.80
7335;BME280;3708;42.632;23.378;2023-09-30T12:51:04;94652.00;;;33.84;17.67
7335;BME280;3708;42.632;23.378;2023-09-30T12:53:32;94647.69;;;33.50;17.90
7335;BME280;3708;42.632;23.378;2023-09-30T12:55:59;94639.00;;;33.28;17.77
7335;BME280;3708;42.632;23.378;2023-09-30T12:58:26;94642.53;;;32.43;17.92
7335;BME280;3708;42.632;23.378;2023-09-30T13:00:54;94651.31;;;32.65;17.97
7335;BME280;3708;42.632;23.378;2023-09-30T13:03:21;94643.59;;;32.46;18.28
7335;BME280;3708;42.632;23.378;2023-09-30T13:05:50;94637.75;;;32.65;18.04
7335;BME280;3708;42.632;23.378;2023-09-30T13:08:17;94635.81;;;32.93;18.15
7335;BME280;3708;42.632;23.378;2023-09-30T13:10:44;94637.94;;;33.07;18.11
7335;BME280;3708;42.632;23.378;2023-09-30T13:13:12;94632.75;;;33.63;17.77
7335;BME280;3708;42.632;23.378;2023-09-30T13:15:39;94628.34;;;33.75;17.53
7335;BME280;3708;42.632;23.378;2023-09-30T13:18:07;94633.22;;;33.44;17.73
7335;BME280;3708;42.632;23.378;2023-09-30T13:20:33;94636.06;;;33.58;17.83